createdAt,value
2022-12-18T00:01:07.338Z,-3.58
2022-12-18T00:03:37.030Z,-3.57
2022-12-18T00:06:04.196Z,-3.61
2022-12-18T00:08:30.801Z,-3.61
2022-12-18T00:11:07.021Z,-3.58
2022-12-18T00:13:34.283Z,-3.59
2022-12-18T00:16:06.052Z,-3.66
2022-12-18T00:18:33.768Z,-3.69
2022-12-18T00:21:02.509Z,-3.68
2022-12-18T00:23:30.339Z,-3.67
2022-12-18T00:26:01.255Z,-3.69
2022-12-18T00:28:27.955Z,-3.67
2022-12-18T00:31:12.616Z,-3.64
2022-12-18T00:33:39.892Z,-3.62
2022-12-18T00:36:10.059Z,-3.63
2022-12-18T00:38:37.272Z,-3.63
2022-12-18T00:41:04.541Z,-3.68
2022-12-18T00:43:31.033Z,-3.68
2022-12-18T00:45:57.522Z,-3.66
2022-12-18T00:48:24.091Z,-3.65
2022-12-18T00:50:51.552Z,-3.65
2022-12-18T00:53:19.250Z,-3.70
2022-12-18T00:55:46.725Z,-3.70
2022-12-18T00:58:14.640Z,-3.73
2022-12-18T01:00:41.888Z,-3.74
2022-12-18T01:03:08.968Z,-3.76
2022-12-18T01:05:35.606Z,-3.79
2022-12-18T01:08:02.174Z,-3.81
2022-12-18T01:10:28.685Z,-3.84
2022-12-18T01:12:55.123Z,-3.86
2022-12-18T01:15:21.695Z,-3.86
2022-12-18T01:17:48.194Z,-3.90
2022-12-18T01:20:15.012Z,-3.90
2022-12-18T01:22:41.766Z,-3.83
2022-12-18T01:25:09.125Z,-3.82
2022-12-18T01:27:35.771Z,-3.81
2022-12-18T01:30:02.464Z,-3.82
2022-12-18T01:32:31.985Z,-3.85
2022-12-18T01:34:58.826Z,-3.89
2022-12-18T01:37:25.571Z,-3.94
2022-12-18T01:39:55.311Z,-3.93
2022-12-18T01:42:22.613Z,-3.92
2022-12-18T01:45:22.474Z,-3.96
2022-12-18T01:47:52.097Z,-4.02
2022-12-18T01:50:23.136Z,-4.06
2022-12-18T01:53:03.233Z,-4.07
2022-12-18T01:55:34.084Z,-4.12
2022-12-18T01:58:01.575Z,-4.17
2022-12-18T02:00:29.067Z,-4.24
2022-12-18T02:02:55.882Z,-4.29
2022-12-18T02:05:41.907Z,-4.35
2022-12-18T02:08:17.154Z,-4.44
2022-12-18T02:11:15.105Z,-4.53
2022-12-18T02:13:57.156Z,-4.59
2022-12-18T02:17:02.483Z,-4.67
2022-12-18T02:19:48.194Z,-4.77
2022-12-18T02:22:42.575Z,-4.80
2022-12-18T02:25:33.581Z,-4.82
2022-12-18T02:28:02.735Z,-4.86
2022-12-18T02:30:34.070Z,-4.87
2022-12-18T02:33:04.984Z,-4.88
2022-12-18T02:35:34.681Z,-4.88
2022-12-18T02:38:04.148Z,-4.90
2022-12-18T02:40:31.398Z,-4.96
2022-12-18T02:43:13.405Z,-5.03
2022-12-18T02:45:53.308Z,-5.03
2022-12-18T02:48:24.394Z,-5.07
2022-12-18T02:51:21.800Z,-5.14
2022-12-18T02:54:17.087Z,-5.16
2022-12-18T02:56:51.541Z,-5.17
2022-12-18T02:59:32.951Z,-5.18
2022-12-18T03:02:03.669Z,-5.19
2022-12-18T03:04:44.687Z,-5.22
2022-12-18T03:07:19.497Z,-5.25
2022-12-18T03:09:49.482Z,-5.26
2022-12-18T03:12:24.812Z,-5.29
2022-12-18T03:15:18.331Z,-5.37
2022-12-18T03:17:53.764Z,-5.38
2022-12-18T03:20:23.400Z,-5.38
2022-12-18T03:22:57.141Z,-5.41
2022-12-18T03:25:26.606Z,-5.44
2022-12-18T03:27:58.874Z,-5.47
2022-12-18T03:30:27.495Z,-5.50
2022-12-18T03:33:08.212Z,-5.56
2022-12-18T03:35:40.157Z,-5.65
2022-12-18T03:38:08.139Z,-5.64
2022-12-18T03:41:07.461Z,-5.66
2022-12-18T03:43:51.954Z,-5.67
2022-12-18T03:46:31.035Z,-5.69
2022-12-18T03:49:09.678Z,-5.74
2022-12-18T03:51:46.174Z,-5.80
2022-12-18T03:54:13.915Z,-5.80
2022-12-18T03:56:45.213Z,-5.79
2022-12-18T03:59:16.083Z,-5.79
2022-12-18T04:01:52.587Z,-5.80
2022-12-18T04:04:20.755Z,-5.83
2022-12-18T04:06:50.645Z,-5.87
2022-12-18T04:09:17.318Z,-5.91
2022-12-18T04:11:46.981Z,-5.93
2022-12-18T04:14:17.673Z,-5.96
2022-12-18T04:16:44.984Z,-5.96
2022-12-18T04:19:11.535Z,-6.00
2022-12-18T04:21:38.151Z,-6.04
2022-12-18T04:24:05.059Z,-6.05
2022-12-18T04:26:31.775Z,-6.11
2022-12-18T04:28:58.261Z,-6.14
2022-12-18T04:31:24.947Z,-6.16
2022-12-18T04:33:54.602Z,-6.14
2022-12-18T04:36:21.139Z,-6.15
2022-12-18T04:38:47.745Z,-6.13
2022-12-18T04:41:14.304Z,-6.14
2022-12-18T04:43:41.273Z,-6.15
2022-12-18T04:46:09.108Z,-6.19
2022-12-18T04:48:36.532Z,-6.19
2022-12-18T04:51:03.591Z,-6.21
2022-12-18T04:53:30.159Z,-6.22
2022-12-18T04:56:08.077Z,-6.24
2022-12-18T04:58:34.653Z,-6.26
2022-12-18T05:01:01.450Z,-6.30
2022-12-18T05:03:28.309Z,-6.33
2022-12-18T05:05:54.782Z,-6.35
2022-12-18T05:08:21.557Z,-6.39
2022-12-18T05:10:48.013Z,-6.43
2022-12-18T05:13:14.669Z,-6.42
2022-12-18T05:15:42.753Z,-6.43
2022-12-18T05:18:09.601Z,-6.43
2022-12-18T05:20:36.100Z,-6.46
2022-12-18T05:23:02.692Z,-6.45
2022-12-18T05:25:29.327Z,-6.45
2022-12-18T05:27:56.113Z,-6.45
2022-12-18T05:30:23.468Z,-6.44
2022-12-18T05:32:49.923Z,-6.42
2022-12-18T05:35:16.593Z,-6.44
2022-12-18T05:37:43.652Z,-6.50
2022-12-18T05:40:11.159Z,-6.51
2022-12-18T05:42:37.938Z,-6.49
2022-12-18T05:45:05.828Z,-6.51
2022-12-18T05:47:32.551Z,-6.56
2022-12-18T05:49:59.086Z,-6.66
2022-12-18T05:52:25.635Z,-6.75
2022-12-18T05:54:52.212Z,-6.82
2022-12-18T05:57:18.692Z,-6.85
2022-12-18T05:59:45.296Z,-6.89
2022-12-18T06:02:12.010Z,-6.89
2022-12-18T06:04:38.627Z,-6.91
2022-12-18T06:07:05.172Z,-6.95
2022-12-18T06:09:31.824Z,-6.90
2022-12-18T06:11:58.505Z,-6.89
2022-12-18T06:14:24.999Z,-6.87
2022-12-18T06:16:53.326Z,-6.87
2022-12-18T06:19:19.877Z,-6.86
2022-12-18T06:21:46.447Z,-6.87
2022-12-18T06:24:13.066Z,-6.87
2022-12-18T06:26:40.201Z,-6.94
2022-12-18T06:29:07.020Z,-6.98
2022-12-18T06:31:33.759Z,-6.99
2022-12-18T06:34:02.685Z,-7.00
2022-12-18T06:36:29.669Z,-7.02
2022-12-18T06:38:57.952Z,-7.04
2022-12-18T06:41:25.004Z,-7.08
2022-12-18T06:43:53.552Z,-7.11
2022-12-18T06:46:22.223Z,-7.10
2022-12-18T06:48:50.862Z,-7.09
2022-12-18T06:51:22.270Z,-7.11
2022-12-18T06:53:48.890Z,-7.12
2022-12-18T06:56:15.493Z,-7.12
2022-12-18T06:58:42.106Z,-7.11
2022-12-18T07:01:11.396Z,-7.11
2022-12-18T07:03:40.008Z,-7.12
2022-12-18T07:06:07.485Z,-7.14
2022-12-18T07:08:34.816Z,-7.12
2022-12-18T07:11:04.676Z,-7.11
2022-12-18T07:13:31.374Z,-7.14
2022-12-18T07:16:18.448Z,-7.12
2022-12-18T07:18:49.321Z,-7.12
2022-12-18T07:21:19.303Z,-7.15
2022-12-18T07:23:48.825Z,-7.22
2022-12-18T07:26:17.666Z,-7.21
2022-12-18T07:28:44.796Z,-7.18
2022-12-18T07:31:14.619Z,-7.19
2022-12-18T07:33:42.018Z,-7.17
2022-12-18T07:36:10.753Z,-7.21
2022-12-18T07:38:37.656Z,-7.22
2022-12-18T07:41:12.379Z,-7.22
2022-12-18T07:43:40.451Z,-7.19
2022-12-18T07:46:09.492Z,-7.20
2022-12-18T07:48:36.154Z,-7.19
2022-12-18T07:51:07.585Z,-7.19
2022-12-18T07:53:35.556Z,-7.18
2022-12-18T07:56:26.508Z,-7.15
2022-12-18T07:58:52.664Z,-7.11
2022-12-18T08:01:19.184Z,-7.09
2022-12-18T08:03:47.765Z,-7.08
2022-12-18T08:06:14.722Z,-7.04
2022-12-18T08:08:43.222Z,-7.00
2022-12-18T08:11:10.047Z,-6.96
2022-12-18T08:13:36.687Z,-6.94
2022-12-18T08:16:07.025Z,-6.88
2022-12-18T08:18:35.270Z,-6.83
2022-12-18T08:21:20.451Z,-6.79
2022-12-18T08:23:48.785Z,-6.72
2022-12-18T08:26:16.351Z,-6.67
2022-12-18T08:28:43.197Z,-6.62
2022-12-18T08:31:10.092Z,-6.59
2022-12-18T08:33:39.041Z,-6.53
2022-12-18T08:36:06.452Z,-6.51
2022-12-18T08:38:33.699Z,-6.48
2022-12-18T08:41:04.733Z,-6.42
2022-12-18T08:43:49.861Z,-6.39
2022-12-18T08:46:16.480Z,-6.39
2022-12-18T08:48:43.061Z,-6.35
2022-12-18T08:51:10.684Z,-6.34
2022-12-18T08:53:38.451Z,-6.29
2022-12-18T08:56:05.850Z,-6.24
2022-12-18T08:58:32.497Z,-6.19
2022-12-18T09:01:06.530Z,-6.14
2022-12-18T09:03:33.602Z,-6.06
2022-12-18T09:06:00.614Z,-5.99
2022-12-18T09:08:27.785Z,-5.92
2022-12-18T09:10:54.351Z,-5.85
2022-12-18T09:13:21.106Z,-5.77
2022-12-18T09:15:53.080Z,-5.71
2022-12-18T09:18:22.421Z,-5.65
2022-12-18T09:20:49.045Z,-5.59
2022-12-18T09:23:15.851Z,-5.49
2022-12-18T09:25:42.583Z,-5.41
2022-12-18T09:28:15.568Z,-5.32
2022-12-18T09:30:47.476Z,-5.25
2022-12-18T09:33:14.705Z,-5.15
2022-12-18T09:35:42.835Z,-5.06
2022-12-18T09:38:13.661Z,-5.00
2022-12-18T09:40:48.397Z,-4.90
2022-12-18T09:43:39.492Z,-4.80
2022-12-18T09:46:11.387Z,-4.72
2022-12-18T09:48:44.972Z,-4.66
2022-12-18T09:51:19.421Z,-4.60
2022-12-18T09:53:56.692Z,-4.52
2022-12-18T09:56:24.100Z,-4.45
2022-12-18T09:58:58.913Z,-4.38
2022-12-18T10:01:30.322Z,-4.30
2022-12-18T10:04:02.247Z,-4.21
2022-12-18T10:06:33.307Z,-4.15
2022-12-18T10:09:08.929Z,-4.07
2022-12-18T10:11:55.054Z,-3.98
2022-12-18T10:14:34.007Z,-3.91
2022-12-18T10:17:25.282Z,-3.84
2022-12-18T10:19:57.359Z,-3.78
2022-12-18T10:22:39.079Z,-3.73
2022-12-18T10:25:20.925Z,-3.67
2022-12-18T10:27:48.211Z,-3.62
2022-12-18T10:30:22.204Z,-3.57
2022-12-18T10:32:48.796Z,-3.55
2022-12-18T10:35:25.019Z,-3.50
2022-12-18T10:38:29.210Z,-3.44
2022-12-18T10:40:58.524Z,-3.37
2022-12-18T10:43:36.694Z,-3.33
2022-12-18T10:46:09.151Z,-3.30
2022-12-18T10:48:38.150Z,-3.27
2022-12-18T10:51:12.145Z,-3.22
2022-12-18T10:53:42.442Z,-3.15
2022-12-18T10:56:09.903Z,-3.11
2022-12-18T10:58:39.528Z,-3.05
2022-12-18T11:01:09.491Z,-3.01
2022-12-18T11:03:39.293Z,-2.97
2022-12-18T11:06:07.885Z,-2.93
2022-12-18T11:08:34.658Z,-2.88
2022-12-18T11:11:01.697Z,-2.83
2022-12-18T11:13:31.617Z,-2.81
2022-12-18T11:15:59.044Z,-2.78
2022-12-18T11:18:35.421Z,-2.73
2022-12-18T11:21:08.856Z,-2.68
2022-12-18T11:23:37.210Z,-2.65
2022-12-18T11:26:07.048Z,-2.61
2022-12-18T11:28:48.218Z,-2.56
2022-12-18T11:31:28.763Z,-2.51
2022-12-18T11:34:30.650Z,-2.45
2022-12-18T11:37:00.121Z,-2.41
2022-12-18T11:39:57.654Z,-2.35
2022-12-18T11:42:33.799Z,-2.29
2022-12-18T11:45:02.513Z,-2.26
2022-12-18T11:47:47.817Z,-2.21
2022-12-18T11:50:23.046Z,-2.18
2022-12-18T11:52:55.946Z,-2.15
2022-12-18T11:55:29.934Z,-2.11
2022-12-18T11:58:15.589Z,-2.08
2022-12-18T12:00:55.473Z,-2.07
2022-12-18T12:03:48.542Z,-2.05
2022-12-18T12:06:56.480Z,-2.05
2022-12-18T12:10:10.637Z,-2.03
2022-12-18T12:12:58.467Z,-2.01
2022-12-18T12:16:02.493Z,-1.98
2022-12-18T12:19:19.689Z,-1.95
2022-12-18T12:22:19.942Z,-1.91
2022-12-18T12:24:58.525Z,-1.87
2022-12-18T12:27:33.757Z,-1.87
2022-12-18T12:30:38.150Z,-1.84
2022-12-18T12:33:19.735Z,-1.79
2022-12-18T12:36:04.977Z,-1.75
2022-12-18T12:38:46.858Z,-1.73
2022-12-18T12:41:40.601Z,-1.70
2022-12-18T12:44:15.311Z,-1.69
2022-12-18T12:46:44.662Z,-1.67
2022-12-18T12:49:16.493Z,-1.65
2022-12-18T12:51:48.682Z,-1.64
2022-12-18T12:54:21.139Z,-1.62
2022-12-18T12:57:03.271Z,-1.61
2022-12-18T12:59:30.301Z,-1.59
2022-12-18T13:02:15.144Z,-1.57
2022-12-18T13:05:23.815Z,-1.57
2022-12-18T13:08:12.030Z,-1.56
2022-12-18T13:10:43.292Z,-1.56
2022-12-18T13:13:21.188Z,-1.54
2022-12-18T13:16:06.066Z,-1.55
2022-12-18T13:18:34.198Z,-1.53
2022-12-18T13:21:03.324Z,-1.53
2022-12-18T13:23:38.313Z,-1.52
2022-12-18T13:26:09.011Z,-1.51
2022-12-18T13:28:47.873Z,-1.49
2022-12-18T13:31:14.457Z,-1.49
2022-12-18T13:34:16.939Z,-1.49
2022-12-18T13:36:34.848Z,-1.48
2022-12-18T13:39:26.517Z,-1.49
2022-12-18T13:42:56.339Z,-1.49
2022-12-18T13:45:43.363Z,-1.48
2022-12-18T13:48:23.602Z,-1.50
2022-12-18T13:50:57.573Z,-1.50
2022-12-18T13:53:29.301Z,-1.49
2022-12-18T13:55:56.128Z,-1.50
2022-12-18T13:58:23.369Z,-1.51
2022-12-18T14:00:49.941Z,-1.50
2022-12-18T14:03:22.457Z,-1.50
2022-12-18T14:05:56.657Z,-1.49
2022-12-18T14:08:29.262Z,-1.49
2022-12-18T14:10:56.309Z,-1.48
2022-12-18T14:13:31.266Z,-1.49
2022-12-18T14:15:59.036Z,-1.48
2022-12-18T14:18:28.324Z,-1.47
2022-12-18T14:21:03.423Z,-1.47
2022-12-18T14:23:42.161Z,-1.46
2022-12-18T14:26:28.196Z,-1.47
2022-12-18T14:28:56.447Z,-1.47
2022-12-18T14:31:25.467Z,-1.44
2022-12-18T14:33:53.377Z,-1.44
2022-12-18T14:36:25.266Z,-1.44
2022-12-18T14:38:57.481Z,-1.44
2022-12-18T14:41:25.489Z,-1.45
2022-12-18T14:43:54.849Z,-1.44
2022-12-18T14:46:33.946Z,-1.46
2022-12-18T14:49:06.857Z,-1.47
2022-12-18T14:51:35.252Z,-1.47
2022-12-18T14:54:15.710Z,-1.46
2022-12-18T14:56:52.079Z,-1.47
2022-12-18T14:59:24.823Z,-1.49
2022-12-18T15:02:05.401Z,-1.49
2022-12-18T15:04:35.585Z,-1.47
2022-12-18T15:07:19.690Z,-1.47
2022-12-18T15:10:11.424Z,-1.47
2022-12-18T15:12:42.670Z,-1.48
2022-12-18T15:15:34.482Z,-1.46
2022-12-18T15:18:11.467Z,-1.49
2022-12-18T15:20:44.100Z,-1.47
2022-12-18T15:23:27.140Z,-1.49
2022-12-18T15:26:02.374Z,-1.46
2022-12-18T15:28:48.893Z,-1.42
2022-12-18T15:31:17.036Z,-1.44
2022-12-18T15:33:53.959Z,-1.44
2022-12-18T15:36:26.533Z,-1.46
2022-12-18T15:38:57.878Z,-1.44
2022-12-18T15:41:35.249Z,-1.44
2022-12-18T15:44:03.943Z,-1.45
2022-12-18T15:46:32.005Z,-1.46
2022-12-18T15:49:02.314Z,-1.44
2022-12-18T15:51:34.553Z,-1.46
2022-12-18T15:54:07.215Z,-1.44
2022-12-18T15:56:52.279Z,-1.43
2022-12-18T15:59:23.739Z,-1.45
2022-12-18T16:01:53.944Z,-1.44
2022-12-18T16:04:22.603Z,-1.44
2022-12-18T16:09:37.828Z,-1.46
2022-12-18T16:12:04.836Z,-1.44
2022-12-18T16:14:31.953Z,-1.44
2022-12-18T16:17:03.550Z,-1.44
2022-12-18T16:19:30.728Z,-1.45
2022-12-18T16:21:58.797Z,-1.43
2022-12-18T16:24:28.608Z,-1.42
2022-12-18T16:26:57.263Z,-1.42
2022-12-18T16:29:27.782Z,-1.40
2022-12-18T16:31:55.419Z,-1.40
2022-12-18T16:34:23.450Z,-1.39
2022-12-18T16:36:54.396Z,-1.37
2022-12-18T16:39:22.365Z,-1.37
2022-12-18T16:41:50.329Z,-1.37
2022-12-18T16:44:17.437Z,-1.34
2022-12-18T16:46:46.395Z,-1.35
2022-12-18T16:49:18.560Z,-1.36
2022-12-18T16:51:46.809Z,-1.34
2022-12-18T16:54:19.023Z,-1.33
2022-12-18T16:56:48.035Z,-1.33
2022-12-18T16:59:14.753Z,-1.33
2022-12-18T17:01:42.571Z,-1.32
2022-12-18T17:04:09.648Z,-1.32
2022-12-18T17:06:41.646Z,-1.31
2022-12-18T17:09:12.783Z,-1.31
2022-12-18T17:11:39.501Z,-1.31
2022-12-18T17:14:25.318Z,-1.31
2022-12-18T17:17:20.377Z,-1.31
2022-12-18T17:19:43.744Z,-1.30
2022-12-18T17:22:10.412Z,-1.30
2022-12-18T17:24:37.485Z,-1.30
2022-12-18T17:27:04.752Z,-1.28
2022-12-18T17:29:31.599Z,-1.28
2022-12-18T17:32:00.412Z,-1.28
2022-12-18T17:34:27.578Z,-1.26
2022-12-18T17:36:54.272Z,-1.26
2022-12-18T17:39:21.459Z,-1.25
2022-12-18T17:41:49.374Z,-1.23
2022-12-18T17:44:16.876Z,-1.23
2022-12-18T17:46:46.709Z,-1.23
2022-12-18T17:49:14.215Z,-1.21
2022-12-18T17:51:43.178Z,-1.20
2022-12-18T17:54:10.696Z,-1.19
2022-12-18T17:56:37.925Z,-1.17
2022-12-18T17:59:04.627Z,-1.18
2022-12-18T18:01:31.220Z,-1.17
2022-12-18T18:04:00.213Z,-1.16
2022-12-18T18:06:27.238Z,-1.17
2022-12-18T18:08:54.151Z,-1.14
2022-12-18T18:11:41.310Z,-1.14
2022-12-18T18:14:15.467Z,-1.13
2022-12-18T18:16:44.634Z,-1.14
2022-12-18T18:19:14.766Z,-1.11
2022-12-18T18:21:44.200Z,-1.09
2022-12-18T18:24:13.546Z,-1.09
2022-12-18T18:26:41.619Z,-1.07
2022-12-18T18:29:08.825Z,-1.07
2022-12-18T18:31:40.803Z,-1.06
2022-12-18T18:34:08.207Z,-1.06
2022-12-18T18:36:34.957Z,-1.04
2022-12-18T18:39:02.156Z,-1.04
2022-12-18T18:41:30.621Z,-1.01
2022-12-18T18:43:58.694Z,-0.99
2022-12-18T18:46:25.898Z,-0.99
2022-12-18T18:48:52.738Z,-0.99
2022-12-18T18:51:21.117Z,-0.99
2022-12-18T18:53:50.487Z,-0.96
2022-12-18T18:56:45.465Z,-0.95
2022-12-18T18:59:06.503Z,-0.92
2022-12-18T19:01:33.162Z,-0.88
2022-12-18T19:04:01.138Z,-0.87
2022-12-18T19:06:28.493Z,-0.87
2022-12-18T19:08:57.210Z,-0.87
2022-12-18T19:11:44.148Z,-0.87
2022-12-18T19:14:12.977Z,-0.86
2022-12-18T19:16:39.675Z,-0.84
2022-12-18T19:19:07.046Z,-0.84
2022-12-18T19:21:34.877Z,-0.82
2022-12-18T19:24:05.055Z,-0.81
2022-12-18T19:26:31.659Z,-0.76
2022-12-18T19:29:06.053Z,-0.74
2022-12-18T19:31:35.993Z,-0.73
2022-12-18T19:34:03.790Z,-0.73
2022-12-18T19:36:31.270Z,-0.70
2022-12-18T19:39:00.219Z,-0.68
2022-12-18T19:41:27.546Z,-0.65
2022-12-18T19:43:57.145Z,-0.64
2022-12-18T19:46:23.876Z,-0.63
2022-12-18T19:48:51.585Z,-0.62
2022-12-18T19:51:22.842Z,-0.60
2022-12-18T19:53:54.949Z,-0.59
2022-12-18T19:56:26.909Z,-0.59
2022-12-18T19:58:55.061Z,-0.58
2022-12-18T20:01:24.150Z,-0.57
2022-12-18T20:03:53.748Z,-0.57
2022-12-18T20:06:34.276Z,-0.58
2022-12-18T20:09:04.418Z,-0.59
2022-12-18T20:11:32.351Z,-0.59
2022-12-18T20:13:58.920Z,-0.60
2022-12-18T20:16:25.611Z,-0.60
2022-12-18T20:18:52.462Z,-0.61
2022-12-18T20:21:19.673Z,-0.60
2022-12-18T20:23:46.735Z,-0.63
2022-12-18T20:26:13.283Z,-0.64
2022-12-18T20:28:40.724Z,-0.65
2022-12-18T20:31:08.485Z,-0.63
2022-12-18T20:33:37.486Z,-0.62
2022-12-18T20:36:10.512Z,-0.63
2022-12-18T20:38:39.037Z,-0.62
2022-12-18T20:41:10.973Z,-0.63
2022-12-18T20:43:39.158Z,-0.63
2022-12-18T20:46:09.291Z,-0.63
2022-12-18T20:48:36.297Z,-0.63
2022-12-18T20:51:06.059Z,-0.63
2022-12-18T20:53:33.481Z,-0.64
2022-12-18T20:56:01.569Z,-0.62
2022-12-18T20:58:28.267Z,-0.62
2022-12-18T21:01:08.652Z,-0.63
2022-12-18T21:03:35.554Z,-0.62
2022-12-18T21:06:02.232Z,-0.62
2022-12-18T21:08:28.704Z,-0.62
2022-12-18T21:10:55.916Z,-0.62
2022-12-18T21:13:22.935Z,-0.62
2022-12-18T21:15:49.558Z,-0.61
2022-12-18T21:18:16.129Z,-0.62
2022-12-18T21:20:42.633Z,-0.61
2022-12-18T21:23:16.227Z,-0.60
2022-12-18T21:25:43.472Z,-0.59
2022-12-18T21:28:09.908Z,-0.60
2022-12-18T21:30:36.570Z,-0.59
2022-12-18T21:33:03.259Z,-0.59
2022-12-18T21:35:29.797Z,-0.58
2022-12-18T21:37:58.741Z,-0.57
2022-12-18T21:40:25.311Z,-0.57
2022-12-18T21:43:10.396Z,-0.57
2022-12-18T21:45:40.511Z,-0.55
2022-12-18T21:48:07.055Z,-0.54
2022-12-18T21:50:33.525Z,-0.55
2022-12-18T21:53:00.102Z,-0.52
2022-12-18T21:55:26.649Z,-0.52
2022-12-18T21:57:54.692Z,-0.50
2022-12-18T22:00:21.579Z,-0.49
2022-12-18T22:03:17.848Z,-0.47
2022-12-18T22:05:35.291Z,-0.46
2022-12-18T22:08:01.804Z,-0.44
2022-12-18T22:10:28.650Z,-0.44
2022-12-18T22:12:55.235Z,-0.42
2022-12-18T22:15:22.155Z,-0.42
2022-12-18T22:17:50.995Z,-0.42
2022-12-18T22:20:19.965Z,-0.42
2022-12-18T22:22:48.202Z,-0.41
2022-12-18T22:25:14.866Z,-0.39
2022-12-18T22:27:41.323Z,-0.39
2022-12-18T22:30:08.449Z,-0.38
2022-12-18T22:32:36.139Z,-0.37
2022-12-18T22:35:09.499Z,-0.36
2022-12-18T22:37:40.794Z,-0.34
2022-12-18T22:40:07.927Z,-0.33
2022-12-18T22:42:35.295Z,-0.34
2022-12-18T22:45:01.832Z,-0.33
2022-12-18T22:47:30.513Z,-0.33
2022-12-18T22:49:57.869Z,-0.32
2022-12-18T22:52:25.082Z,-0.32
2022-12-18T22:54:53.333Z,-0.32
2022-12-18T22:57:21.693Z,-0.33
2022-12-18T22:59:49.132Z,-0.33
2022-12-18T23:02:15.839Z,-0.33
2022-12-18T23:04:42.439Z,-0.31
2022-12-18T23:07:09.048Z,-0.31
2022-12-18T23:09:37.746Z,-0.29
2022-12-18T23:12:04.693Z,-0.30
2022-12-18T23:14:31.807Z,-0.28
2022-12-18T23:16:58.327Z,-0.28
2022-12-18T23:19:25.406Z,-0.27
2022-12-18T23:21:51.996Z,-0.26
2022-12-18T23:24:21.028Z,-0.26
2022-12-18T23:26:47.494Z,-0.25
2022-12-18T23:29:14.092Z,-0.24
2022-12-18T23:31:40.732Z,-0.24
2022-12-18T23:34:07.850Z,-0.22
2022-12-18T23:36:45.334Z,-0.21
2022-12-18T23:39:15.449Z,-0.18
2022-12-18T23:41:57.742Z,-0.17
2022-12-18T23:44:24.344Z,-0.15
2022-12-18T23:46:50.946Z,-0.15
2022-12-18T23:49:17.497Z,-0.14
2022-12-18T23:51:43.941Z,-0.11
2022-12-18T23:54:10.859Z,-0.10
2022-12-18T23:56:37.445Z,-0.10
2022-12-18T23:59:03.964Z,-0.09
